sensor_id;sensor_type;location;lat;lon;timestamp;temperature;humidity
71436;SHT31;59251;51.326;12.370;2024-02-21T00:00:23;9.12;82.17
71436;SHT31;59251;51.326;12.370;2024-02-21T00:02:51;9.18;82.16
71436;SHT31;59251;51.326;12.370;2024-02-21T00:05:18;9.14;82.05
71436;SHT31;59251;51.326;12.370;2024-02-21T00:07:45;9.12;82.43
71436;SHT31;59251;51.326;12.370;2024-02-21T00:10:12;9.15;82.19
71436;SHT31;59251;51.326;12.370;2024-02-21T00:12:39;9.10;82.32
71436;SHT31;59251;51.326;12.370;2024-02-21T00:15:06;9.07;82.54
71436;SHT31;59251;51.326;12.370;2024-02-21T00:17:33;8.97;82.97
71436;SHT31;59251;51.326;12.370;2024-02-21T00:20:01;9.00;82.90
71436;SHT31;59251;51.326;12.370;2024-02-21T00:22:28;8.98;82.76
71436;SHT31;59251;51.326;12.370;2024-02-21T00:24:56;8.98;82.78
71436;SHT31;59251;51.326;12.370;2024-02-21T00:27:24;9.03;82.83
71436;SHT31;59251;51.326;12.370;2024-02-21T00:29:51;8.92;82.83
71436;SHT31;59251;51.326;12.370;2024-02-21T00:32:18;8.91;82.82
71436;SHT31;59251;51.326;12.370;2024-02-21T00:34:44;8.96;82.69
71436;SHT31;59251;51.326;12.370;2024-02-21T00:37:12;9.01;82.53
71436;SHT31;59251;51.326;12.370;2024-02-21T00:39:39;9.04;82.52
71436;SHT31;59251;51.326;12.370;2024-02-21T00:42:08;9.08;82.45
71436;SHT31;59251;51.326;12.370;2024-02-21T00:44:34;9.03;82.39
71436;SHT31;59251;51.326;12.370;2024-02-21T00:47:01;8.94;82.67
71436;SHT31;59251;51.326;12.370;2024-02-21T00:49:28;8.96;82.71
71436;SHT31;59251;51.326;12.370;2024-02-21T00:51:54;8.87;82.92
71436;SHT31;59251;51.326;12.370;2024-02-21T00:54:22;8.88;82.98
71436;SHT31;59251;51.326;12.370;2024-02-21T00:56:49;8.87;82.75
71436;SHT31;59251;51.326;12.370;2024-02-21T00:59:16;8.88;82.68
71436;SHT31;59251;51.326;12.370;2024-02-21T01:01:43;8.96;82.77
71436;SHT31;59251;51.326;12.370;2024-02-21T01:04:10;8.88;82.86
71436;SHT31;59251;51.326;12.370;2024-02-21T01:06:36;8.91;82.79
71436;SHT31;59251;51.326;12.370;2024-02-21T01:09:03;8.83;82.92
71436;SHT31;59251;51.326;12.370;2024-02-21T01:11:31;8.84;82.94
71436;SHT31;59251;51.326;12.370;2024-02-21T01:13:58;8.84;82.91
71436;SHT31;59251;51.326;12.370;2024-02-21T01:16:25;8.88;82.77
71436;SHT31;59251;51.326;12.370;2024-02-21T01:18:52;8.74;83.26
71436;SHT31;59251;51.326;12.370;2024-02-21T01:21:19;8.84;83.19
71436;SHT31;59251;51.326;12.370;2024-02-21T01:23:45;8.80;83.07
71436;SHT31;59251;51.326;12.370;2024-02-21T01:26:12;8.87;82.98
71436;SHT31;59251;51.326;12.370;2024-02-21T01:28:42;8.74;83.32
71436;SHT31;59251;51.326;12.370;2024-02-21T01:31:09;8.77;83.20
71436;SHT31;59251;51.326;12.370;2024-02-21T01:33:35;8.78;82.96
71436;SHT31;59251;51.326;12.370;2024-02-21T01:36:04;8.78;83.22
71436;SHT31;59251;51.326;12.370;2024-02-21T01:38:32;8.74;83.21
71436;SHT31;59251;51.326;12.370;2024-02-21T01:40:59;8.73;83.26
71436;SHT31;59251;51.326;12.370;2024-02-21T01:43:26;8.81;83.00
71436;SHT31;59251;51.326;12.370;2024-02-21T01:45:55;8.84;82.79
71436;SHT31;59251;51.326;12.370;2024-02-21T01:48:22;8.97;82.54
71436;SHT31;59251;51.326;12.370;2024-02-21T01:50:50;8.94;82.45
71436;SHT31;59251;51.326;12.370;2024-02-21T01:53:20;8.78;82.94
71436;SHT31;59251;51.326;12.370;2024-02-21T01:55:47;8.80;82.97
71436;SHT31;59251;51.326;12.370;2024-02-21T01:58:15;8.81;83.02
71436;SHT31;59251;51.326;12.370;2024-02-21T02:00:43;8.92;82.71
71436;SHT31;59251;51.326;12.370;2024-02-21T02:03:12;8.92;82.56
71436;SHT31;59251;51.326;12.370;2024-02-21T02:05:43;8.87;82.82
71436;SHT31;59251;51.326;12.370;2024-02-21T02:08:10;8.98;82.42
71436;SHT31;59251;51.326;12.370;2024-02-21T02:10:38;8.94;82.40
71436;SHT31;59251;51.326;12.370;2024-02-21T02:13:05;8.88;82.77
71436;SHT31;59251;51.326;12.370;2024-02-21T02:15:39;8.94;82.40
71436;SHT31;59251;51.326;12.370;2024-02-21T02:18:07;9.01;82.32
71436;SHT31;59251;51.326;12.370;2024-02-21T02:20:35;8.96;82.57
71436;SHT31;59251;51.326;12.370;2024-02-21T02:23:07;8.98;82.48
71436;SHT31;59251;51.326;12.370;2024-02-21T02:25:36;8.88;82.66
71436;SHT31;59251;51.326;12.370;2024-02-21T02:28:03;8.90;82.70
71436;SHT31;59251;51.326;12.370;2024-02-21T02:30:32;8.91;82.56
71436;SHT31;59251;51.326;12.370;2024-02-21T02:32:59;8.92;82.58
71436;SHT31;59251;51.326;12.370;2024-02-21T02:35:26;8.80;82.85
71436;SHT31;59251;51.326;12.370;2024-02-21T02:37:52;8.73;82.95
71436;SHT31;59251;51.326;12.370;2024-02-21T02:40:19;8.78;82.95
71436;SHT31;59251;51.326;12.370;2024-02-21T02:42:47;8.78;82.91
71436;SHT31;59251;51.326;12.370;2024-02-21T02:45:15;8.80;82.76
71436;SHT31;59251;51.326;12.370;2024-02-21T02:47:42;8.85;82.54
71436;SHT31;59251;51.326;12.370;2024-02-21T02:50:09;8.85;82.62
71436;SHT31;59251;51.326;12.370;2024-02-21T02:52:36;8.94;82.40
71436;SHT31;59251;51.326;12.370;2024-02-21T02:55:04;8.97;82.35
71436;SHT31;59251;51.326;12.370;2024-02-21T02:57:31;8.87;82.43
71436;SHT31;59251;51.326;12.370;2024-02-21T02:59:59;8.88;82.67
71436;SHT31;59251;51.326;12.370;2024-02-21T03:02:25;8.87;82.75
71436;SHT31;59251;51.326;12.370;2024-02-21T03:04:52;8.84;83.01
71436;SHT31;59251;51.326;12.370;2024-02-21T03:07:20;8.94;82.52
71436;SHT31;59251;51.326;12.370;2024-02-21T03:09:46;8.87;82.70
71436;SHT31;59251;51.326;12.370;2024-02-21T03:12:13;8.88;82.50
71436;SHT31;59251;51.326;12.370;2024-02-21T03:14:44;8.92;82.39
71436;SHT31;59251;51.326;12.370;2024-02-21T03:17:12;8.98;82.26
71436;SHT31;59251;51.326;12.370;2024-02-21T03:19:39;9.00;82.20
71436;SHT31;59251;51.326;12.370;2024-02-21T03:22:06;8.98;82.26
71436;SHT31;59251;51.326;12.370;2024-02-21T03:24:33;8.97;82.40
71436;SHT31;59251;51.326;12.370;2024-02-21T03:27:03;9.00;82.37
71436;SHT31;59251;51.326;12.370;2024-02-21T03:29:30;9.03;82.22
71436;SHT31;59251;51.326;12.370;2024-02-21T03:31:56;8.94;82.41
71436;SHT31;59251;51.326;12.370;2024-02-21T03:34:24;9.00;82.30
71436;SHT31;59251;51.326;12.370;2024-02-21T03:36:51;8.97;82.39
71436;SHT31;59251;51.326;12.370;2024-02-21T03:39:18;8.91;82.54
71436;SHT31;59251;51.326;12.370;2024-02-21T03:41:45;8.90;82.63
71436;SHT31;59251;51.326;12.370;2024-02-21T03:44:12;8.88;82.64
71436;SHT31;59251;51.326;12.370;2024-02-21T03:46:38;8.88;82.91
71436;SHT31;59251;51.326;12.370;2024-02-21T03:49:05;8.96;82.65
71436;SHT31;59251;51.326;12.370;2024-02-21T03:51:33;8.97;82.54
71436;SHT31;59251;51.326;12.370;2024-02-21T03:54:00;8.88;82.95
71436;SHT31;59251;51.326;12.370;2024-02-21T03:56:27;8.88;82.75
71436;SHT31;59251;51.326;12.370;2024-02-21T03:58:54;8.98;82.56
71436;SHT31;59251;51.326;12.370;2024-02-21T04:01:20;8.97;82.61
71436;SHT31;59251;51.326;12.370;2024-02-21T04:03:47;9.04;82.70
71436;SHT31;59251;51.326;12.370;2024-02-21T04:06:14;9.01;82.63
71436;SHT31;59251;51.326;12.370;2024-02-21T04:08:42;8.96;83.01
71436;SHT31;59251;51.326;12.370;2024-02-21T04:11:09;8.97;83.15
71436;SHT31;59251;51.326;12.370;2024-02-21T04:13:35;8.98;83.34
71436;SHT31;59251;51.326;12.370;2024-02-21T04:16:02;8.94;83.42
71436;SHT31;59251;51.326;12.370;2024-02-21T04:18:31;8.88;83.81
71436;SHT31;59251;51.326;12.370;2024-02-21T04:20:58;8.88;83.87
71436;SHT31;59251;51.326;12.370;2024-02-21T04:23:25;8.88;83.91
71436;SHT31;59251;51.326;12.370;2024-02-21T04:25:53;8.90;83.97
71436;SHT31;59251;51.326;12.370;2024-02-21T04:28:19;8.94;83.96
71436;SHT31;59251;51.326;12.370;2024-02-21T04:30:46;8.85;84.25
71436;SHT31;59251;51.326;12.370;2024-02-21T04:33:13;8.80;84.56
71436;SHT31;59251;51.326;12.370;2024-02-21T04:35:39;8.87;84.54
71436;SHT31;59251;51.326;12.370;2024-02-21T04:38:06;8.81;84.77
71436;SHT31;59251;51.326;12.370;2024-02-21T04:40:33;8.81;84.90
71436;SHT31;59251;51.326;12.370;2024-02-21T04:43:01;8.74;85.23
71436;SHT31;59251;51.326;12.370;2024-02-21T04:45:28;8.80;85.24
71436;SHT31;59251;51.326;12.370;2024-02-21T04:47:54;8.80;85.31
71436;SHT31;59251;51.326;12.370;2024-02-21T04:50:21;8.76;85.49
71436;SHT31;59251;51.326;12.370;2024-02-21T04:52:48;8.66;85.73
71436;SHT31;59251;51.326;12.370;2024-02-21T04:55:15;8.70;85.80
71436;SHT31;59251;51.326;12.370;2024-02-21T04:57:42;8.71;85.87
71436;SHT31;59251;51.326;12.370;2024-02-21T05:00:11;8.63;85.76
71436;SHT31;59251;51.326;12.370;2024-02-21T05:02:38;8.64;85.95
71436;SHT31;59251;51.326;12.370;2024-02-21T05:05:05;8.71;85.90
71436;SHT31;59251;51.326;12.370;2024-02-21T05:07:32;8.67;85.97
71436;SHT31;59251;51.326;12.370;2024-02-21T05:09:58;8.73;85.87
71436;SHT31;59251;51.326;12.370;2024-02-21T05:12:25;8.77;85.74
71436;SHT31;59251;51.326;12.370;2024-02-21T05:14:52;8.74;85.47
71436;SHT31;59251;51.326;12.370;2024-02-21T05:17:20;8.70;85.83
71436;SHT31;59251;51.326;12.370;2024-02-21T05:19:47;8.76;85.42
71436;SHT31;59251;51.326;12.370;2024-02-21T05:22:13;8.70;85.61
71436;SHT31;59251;51.326;12.370;2024-02-21T05:24:40;8.66;85.71
71436;SHT31;59251;51.326;12.370;2024-02-21T05:27:07;8.69;85.41
71436;SHT31;59251;51.326;12.370;2024-02-21T05:29:33;8.80;85.45
71436;SHT31;59251;51.326;12.370;2024-02-21T05:32:00;8.80;85.34
71436;SHT31;59251;51.326;12.370;2024-02-21T05:34:29;8.85;85.10
71436;SHT31;59251;51.326;12.370;2024-02-21T05:36:55;8.76;85.37
71436;SHT31;59251;51.326;12.370;2024-02-21T05:39:23;8.88;85.36
71436;SHT31;59251;51.326;12.370;2024-02-21T05:41:49;8.70;85.25
71436;SHT31;59251;51.326;12.370;2024-02-21T05:44:16;8.71;85.38
71436;SHT31;59251;51.326;12.370;2024-02-21T05:46:43;8.67;85.43
71436;SHT31;59251;51.326;12.370;2024-02-21T05:49:10;8.73;85.29
71436;SHT31;59251;51.326;12.370;2024-02-21T05:51:38;8.69;85.58
71436;SHT31;59251;51.326;12.370;2024-02-21T05:54:05;8.63;85.86
71436;SHT31;59251;51.326;12.370;2024-02-21T05:56:32;8.76;85.38
71436;SHT31;59251;51.326;12.370;2024-02-21T05:58:59;8.61;85.67
71436;SHT31;59251;51.326;12.370;2024-02-21T06:01:26;8.63;85.89
71436;SHT31;59251;51.326;12.370;2024-02-21T06:03:53;8.64;85.86
71436;SHT31;59251;51.326;12.370;2024-02-21T06:06:20;8.69;86.07
71436;SHT31;59251;51.326;12.370;2024-02-21T06:08:48;8.53;86.42
71436;SHT31;59251;51.326;12.370;2024-02-21T06:11:15;8.43;87.01
71436;SHT31;59251;51.326;12.370;2024-02-21T06:13:42;8.30;87.26
71436;SHT31;59251;51.326;12.370;2024-02-21T06:16:08;8.25;87.60
71436;SHT31;59251;51.326;12.370;2024-02-21T06:18:36;8.13;87.95
71436;SHT31;59251;51.326;12.370;2024-02-21T06:21:03;8.09;88.01
71436;SHT31;59251;51.326;12.370;2024-02-21T06:23:30;8.19;87.99
71436;SHT31;59251;51.326;12.370;2024-02-21T06:25:58;8.11;88.20
71436;SHT31;59251;51.326;12.370;2024-02-21T06:28:25;8.18;88.07
71436;SHT31;59251;51.326;12.370;2024-02-21T06:30:52;8.12;88.08
71436;SHT31;59251;51.326;12.370;2024-02-21T06:33:19;8.15;88.18
71436;SHT31;59251;51.326;12.370;2024-02-21T06:35:50;8.25;87.84
71436;SHT31;59251;51.326;12.370;2024-02-21T06:38:19;8.26;87.82
71436;SHT31;59251;51.326;12.370;2024-02-21T06:40:46;8.42;87.64
71436;SHT31;59251;51.326;12.370;2024-02-21T06:43:18;8.39;87.64
71436;SHT31;59251;51.326;12.370;2024-02-21T06:45:45;8.48;87.20
71436;SHT31;59251;51.326;12.370;2024-02-21T06:48:16;8.53;86.88
71436;SHT31;59251;51.326;12.370;2024-02-21T06:50:43;8.61;86.59
71436;SHT31;59251;51.326;12.370;2024-02-21T06:53:10;8.53;86.96
71436;SHT31;59251;51.326;12.370;2024-02-21T06:55:37;8.69;86.68
71436;SHT31;59251;51.326;12.370;2024-02-21T06:58:04;8.71;86.64
71436;SHT31;59251;51.326;12.370;2024-02-21T07:00:32;8.76;86.61
71436;SHT31;59251;51.326;12.370;2024-02-21T07:02:59;8.67;86.68
71436;SHT31;59251;51.326;12.370;2024-02-21T07:05:25;8.76;86.55
71436;SHT31;59251;51.326;12.370;2024-02-21T07:07:52;8.78;86.46
71436;SHT31;59251;51.326;12.370;2024-02-21T07:10:19;8.81;86.15
71436;SHT31;59251;51.326;12.370;2024-02-21T07:12:45;8.83;86.16
71436;SHT31;59251;51.326;12.370;2024-02-21T07:15:12;8.80;86.14
71436;SHT31;59251;51.326;12.370;2024-02-21T07:17:40;8.77;86.11
71436;SHT31;59251;51.326;12.370;2024-02-21T07:20:08;8.77;86.20
71436;SHT31;59251;51.326;12.370;2024-02-21T07:22:35;8.81;85.99
71436;SHT31;59251;51.326;12.370;2024-02-21T07:25:01;8.88;86.05
71436;SHT31;59251;51.326;12.370;2024-02-21T07:27:28;8.83;86.03
71436;SHT31;59251;51.326;12.370;2024-02-21T07:29:57;8.83;86.07
71436;SHT31;59251;51.326;12.370;2024-02-21T07:32:23;8.91;86.02
71436;SHT31;59251;51.326;12.370;2024-02-21T07:34:51;9.00;85.62
71436;SHT31;59251;51.326;12.370;2024-02-21T07:37:18;9.11;85.40
71436;SHT31;59251;51.326;12.370;2024-02-21T07:39:45;9.22;85.24
71436;SHT31;59251;51.326;12.370;2024-02-21T07:42:12;9.24;84.83
71436;SHT31;59251;51.326;12.370;2024-02-21T07:44:38;9.28;84.64
71436;SHT31;59251;51.326;12.370;2024-02-21T07:47:05;9.28;84.57
71436;SHT31;59251;51.326;12.370;2024-02-21T07:49:33;9.29;84.68
71436;SHT31;59251;51.326;12.370;2024-02-21T07:52:01;9.36;84.54
71436;SHT31;59251;51.326;12.370;2024-02-21T07:54:28;9.43;84.36
71436;SHT31;59251;51.326;12.370;2024-02-21T07:56:55;9.38;84.15
71436;SHT31;59251;51.326;12.370;2024-02-21T07:59:22;9.40;83.56
71436;SHT31;59251;51.326;12.370;2024-02-21T08:01:49;9.36;83.51
71436;SHT31;59251;51.326;12.370;2024-02-21T08:04:15;9.53;83.43
71436;SHT31;59251;51.326;12.370;2024-02-21T08:06:42;9.56;83.16
71436;SHT31;59251;51.326;12.370;2024-02-21T08:09:12;9.50;83.02
71436;SHT31;59251;51.326;12.370;2024-02-21T08:11:38;9.49;83.06
71436;SHT31;59251;51.326;12.370;2024-02-21T08:14:05;9.46;83.23
71436;SHT31;59251;51.326;12.370;2024-02-21T08:16:32;9.42;83.31
71436;SHT31;59251;51.326;12.370;2024-02-21T08:18:59;9.50;83.34
71436;SHT31;59251;51.326;12.370;2024-02-21T08:21:28;9.43;83.33
71436;SHT31;59251;51.326;12.370;2024-02-21T08:23:55;9.47;83.37
71436;SHT31;59251;51.326;12.370;2024-02-21T08:26:23;9.56;83.31
71436;SHT31;59251;51.326;12.370;2024-02-21T08:28:53;9.65;83.22
71436;SHT31;59251;51.326;12.370;2024-02-21T08:31:20;9.65;83.26
71436;SHT31;59251;51.326;12.370;2024-02-21T08:33:48;9.63;83.21
71436;SHT31;59251;51.326;12.370;2024-02-21T08:36:17;9.73;83.11
71436;SHT31;59251;51.326;12.370;2024-02-21T08:38:44;9.60;83.27
71436;SHT31;59251;51.326;12.370;2024-02-21T08:41:11;9.57;83.65
71436;SHT31;59251;51.326;12.370;2024-02-21T08:43:40;9.69;83.45
71436;SHT31;59251;51.326;12.370;2024-02-21T08:46:06;9.72;83.66
71436;SHT31;59251;51.326;12.370;2024-02-21T08:48:33;9.57;83.98
71436;SHT31;59251;51.326;12.370;2024-02-21T08:51:00;9.66;84.22
71436;SHT31;59251;51.326;12.370;2024-02-21T08:53:27;9.56;84.59
71436;SHT31;59251;51.326;12.370;2024-02-21T08:55:54;9.63;84.63
71436;SHT31;59251;51.326;12.370;2024-02-21T08:58:20;9.56;84.50
71436;SHT31;59251;51.326;12.370;2024-02-21T09:00:50;9.63;84.59
71436;SHT31;59251;51.326;12.370;2024-02-21T09:03:17;9.73;84.65
71436;SHT31;59251;51.326;12.370;2024-02-21T09:05:45;9.67;84.59
71436;SHT31;59251;51.326;12.370;2024-02-21T09:08:12;9.57;84.49
71436;SHT31;59251;51.326;12.370;2024-02-21T09:10:39;9.57;84.48
71436;SHT31;59251;51.326;12.370;2024-02-21T09:13:06;9.57;84.53
71436;SHT31;59251;51.326;12.370;2024-02-21T09:15:33;9.57;84.54
71436;SHT31;59251;51.326;12.370;2024-02-21T09:18:02;9.59;84.63
71436;SHT31;59251;51.326;12.370;2024-02-21T09:20:29;9.66;84.38
71436;SHT31;59251;51.326;12.370;2024-02-21T09:22:56;9.72;84.13
71436;SHT31;59251;51.326;12.370;2024-02-21T09:25:23;9.83;83.86
71436;SHT31;59251;51.326;12.370;2024-02-21T09:27:50;9.84;83.80
71436;SHT31;59251;51.326;12.370;2024-02-21T09:30:17;9.74;83.78
71436;SHT31;59251;51.326;12.370;2024-02-21T09:32:44;9.65;83.61
71436;SHT31;59251;51.326;12.370;2024-02-21T09:35:12;9.67;83.68
71436;SHT31;59251;51.326;12.370;2024-02-21T09:37:39;9.70;83.98
71436;SHT31;59251;51.326;12.370;2024-02-21T09:40:07;9.84;83.44
71436;SHT31;59251;51.326;12.370;2024-02-21T09:42:37;9.87;83.49
71436;SHT31;59251;51.326;12.370;2024-02-21T09:45:08;10.01;83.50
71436;SHT31;59251;51.326;12.370;2024-02-21T09:47:55;9.89;83.30
71436;SHT31;59251;51.326;12.370;2024-02-21T09:50:27;10.04;82.99
71436;SHT31;59251;51.326;12.370;2024-02-21T09:52:55;10.00;82.97
71436;SHT31;59251;51.326;12.370;2024-02-21T09:55:22;10.10;82.71
71436;SHT31;59251;51.326;12.370;2024-02-21T09:57:50;10.17;82.31
71436;SHT31;59251;51.326;12.370;2024-02-21T10:00:17;10.04;81.77
71436;SHT31;59251;51.326;12.370;2024-02-21T10:02:47;10.14;81.49
71436;SHT31;59251;51.326;12.370;2024-02-21T10:05:14;10.20;81.28
71436;SHT31;59251;51.326;12.370;2024-02-21T10:07:44;10.13;81.34
71436;SHT31;59251;51.326;12.370;2024-02-21T10:10:11;10.24;81.28
71436;SHT31;59251;51.326;12.370;2024-02-21T10:12:48;10.32;81.01
71436;SHT31;59251;51.326;12.370;2024-02-21T10:15:20;10.25;81.10
71436;SHT31;59251;51.326;12.370;2024-02-21T10:17:47;10.18;80.98
71436;SHT31;59251;51.326;12.370;2024-02-21T10:20:14;10.22;80.85
71436;SHT31;59251;51.326;12.370;2024-02-21T10:22:43;10.41;80.76
71436;SHT31;59251;51.326;12.370;2024-02-21T10:25:10;10.37;80.88
71436;SHT31;59251;51.326;12.370;2024-02-21T10:27:37;10.37;81.29
71436;SHT31;59251;51.326;12.370;2024-02-21T10:30:05;10.34;81.03
71436;SHT31;59251;51.326;12.370;2024-02-21T10:32:32;10.49;80.54
71436;SHT31;59251;51.326;12.370;2024-02-21T10:35:03;10.63;80.20
71436;SHT31;59251;51.326;12.370;2024-02-21T10:37:30;10.59;80.50
71436;SHT31;59251;51.326;12.370;2024-02-21T10:39:58;10.61;80.09
71436;SHT31;59251;51.326;12.370;2024-02-21T10:42:29;10.65;79.77
71436;SHT31;59251;51.326;12.370;2024-02-21T10:45:01;10.56;79.71
71436;SHT31;59251;51.326;12.370;2024-02-21T10:47:31;10.66;79.64
71436;SHT31;59251;51.326;12.370;2024-02-21T10:50:02;10.72;79.42
71436;SHT31;59251;51.326;12.370;2024-02-21T10:52:40;10.55;79.49
71436;SHT31;59251;51.326;12.370;2024-02-21T10:55:18;10.68;79.31
71436;SHT31;59251;51.326;12.370;2024-02-21T10:57:46;10.59;79.22
71436;SHT31;59251;51.326;12.370;2024-02-21T11:00:15;10.52;79.29
71436;SHT31;59251;51.326;12.370;2024-02-21T11:02:44;10.59;79.23
71436;SHT31;59251;51.326;12.370;2024-02-21T11:05:11;10.68;79.14
71436;SHT31;59251;51.326;12.370;2024-02-21T11:07:39;10.76;79.17
71436;SHT31;59251;51.326;12.370;2024-02-21T11:10:22;10.77;79.61
71436;SHT31;59251;51.326;12.370;2024-02-21T11:12:52;10.83;79.87
71436;SHT31;59251;51.326;12.370;2024-02-21T11:15:25;10.99;79.64
71436;SHT31;59251;51.326;12.370;2024-02-21T11:17:55;11.20;78.95
71436;SHT31;59251;51.326;12.370;2024-02-21T11:20:31;11.42;78.55
71436;SHT31;59251;51.326;12.370;2024-02-21T11:22:59;11.52;78.12
71436;SHT31;59251;51.326;12.370;2024-02-21T11:25:27;11.59;77.99
71436;SHT31;59251;51.326;12.370;2024-02-21T11:28:02;11.59;78.18
71436;SHT31;59251;51.326;12.370;2024-02-21T11:30:30;11.54;78.03
71436;SHT31;59251;51.326;12.370;2024-02-21T11:33:01;11.42;78.28
71436;SHT31;59251;51.326;12.370;2024-02-21T11:35:32;11.59;77.98
71436;SHT31;59251;51.326;12.370;2024-02-21T11:38:09;11.55;78.17
71436;SHT31;59251;51.326;12.370;2024-02-21T11:40:43;11.62;78.06
71436;SHT31;59251;51.326;12.370;2024-02-21T11:43:10;11.45;78.53
71436;SHT31;59251;51.326;12.370;2024-02-21T11:45:36;11.39;78.31
71436;SHT31;59251;51.326;12.370;2024-02-21T11:48:06;11.47;78.33
71436;SHT31;59251;51.326;12.370;2024-02-21T11:50:34;11.54;78.60
71436;SHT31;59251;51.326;12.370;2024-02-21T11:53:01;11.42;79.00
71436;SHT31;59251;51.326;12.370;2024-02-21T11:55:28;11.47;78.97
71436;SHT31;59251;51.326;12.370;2024-02-21T11:57:56;11.30;78.90
71436;SHT31;59251;51.326;12.370;2024-02-21T12:00:25;11.35;79.01
71436;SHT31;59251;51.326;12.370;2024-02-21T12:02:52;11.48;78.69
71436;SHT31;59251;51.326;12.370;2024-02-21T12:05:20;11.32;78.55
71436;SHT31;59251;51.326;12.370;2024-02-21T12:07:47;11.57;78.35
71436;SHT31;59251;51.326;12.370;2024-02-21T12:10:14;11.64;78.15
71436;SHT31;59251;51.326;12.370;2024-02-21T12:12:41;11.51;78.27
71436;SHT31;59251;51.326;12.370;2024-02-21T12:15:09;11.39;78.65
71436;SHT31;59251;51.326;12.370;2024-02-21T12:17:36;11.32;79.02
71436;SHT31;59251;51.326;12.370;2024-02-21T12:20:04;11.27;79.28
71436;SHT31;59251;51.326;12.370;2024-02-21T12:22:35;11.61;78.96
71436;SHT31;59251;51.326;12.370;2024-02-21T12:25:03;11.97;78.13
71436;SHT31;59251;51.326;12.370;2024-02-21T12:27:33;11.96;78.08
71436;SHT31;59251;51.326;12.370;2024-02-21T12:30:00;12.26;77.61
71436;SHT31;59251;51.326;12.370;2024-02-21T12:32:28;12.22;77.48
71436;SHT31;59251;51.326;12.370;2024-02-21T12:34:55;12.22;77.59
71436;SHT31;59251;51.326;12.370;2024-02-21T12:37:22;11.76;78.68
71436;SHT31;59251;51.326;12.370;2024-02-21T12:39:50;11.81;78.71
71436;SHT31;59251;51.326;12.370;2024-02-21T12:42:17;11.83;78.29
71436;SHT31;59251;51.326;12.370;2024-02-21T12:44:44;11.99;78.07
71436;SHT31;59251;51.326;12.370;2024-02-21T12:47:11;12.09;77.92
71436;SHT31;59251;51.326;12.370;2024-02-21T12:49:39;12.51;76.97
71436;SHT31;59251;51.326;12.370;2024-02-21T12:52:06;13.92;73.60
71436;SHT31;59251;51.326;12.370;2024-02-21T12:54:33;13.40;74.37
71436;SHT31;59251;51.326;12.370;2024-02-21T12:57:00;13.82;73.95
71436;SHT31;59251;51.326;12.370;2024-02-21T12:59:28;15.39;70.23
71436;SHT31;59251;51.326;12.370;2024-02-21T13:01:55;14.14;72.45
71436;SHT31;59251;51.326;12.370;2024-02-21T13:04:21;13.54;73.21
71436;SHT31;59251;51.326;12.370;2024-02-21T13:06:50;14.12;72.41
71436;SHT31;59251;51.326;12.370;2024-02-21T13:09:17;15.27;69.79
71436;SHT31;59251;51.326;12.370;2024-02-21T13:11:44;15.90;67.93
71436;SHT31;59251;51.326;12.370;2024-02-21T13:14:11;15.82;67.17
71436;SHT31;59251;51.326;12.370;2024-02-21T13:16:38;16.25;66.60
71436;SHT31;59251;51.326;12.370;2024-02-21T13:19:06;15.45;67.34
71436;SHT31;59251;51.326;12.370;2024-02-21T13:21:33;16.54;65.93
71436;SHT31;59251;51.326;12.370;2024-02-21T13:24:01;16.31;66.09
71436;SHT31;59251;51.326;12.370;2024-02-21T13:26:28;15.63;67.17
71436;SHT31;59251;51.326;12.370;2024-02-21T13:28:55;15.82;67.25
71436;SHT31;59251;51.326;12.370;2024-02-21T13:31:22;15.77;66.76
71436;SHT31;59251;51.326;12.370;2024-02-21T13:33:50;15.74;67.22
71436;SHT31;59251;51.326;12.370;2024-02-21T13:36:17;15.31;67.75
71436;SHT31;59251;51.326;12.370;2024-02-21T13:38:44;14.93;68.82
71436;SHT31;59251;51.326;12.370;2024-02-21T13:41:12;15.41;67.43
71436;SHT31;59251;51.326;12.370;2024-02-21T13:43:39;15.10;68.05
71436;SHT31;59251;51.326;12.370;2024-02-21T13:46:06;15.36;66.91
71436;SHT31;59251;51.326;12.370;2024-02-21T13:48:35;15.22;67.40
71436;SHT31;59251;51.326;12.370;2024-02-21T13:51:02;14.50;68.70
71436;SHT31;59251;51.326;12.370;2024-02-21T13:53:29;14.66;68.69
71436;SHT31;59251;51.326;12.370;2024-02-21T13:55:56;14.94;67.89
71436;SHT31;59251;51.326;12.370;2024-02-21T13:58:24;14.91;68.13
71436;SHT31;59251;51.326;12.370;2024-02-21T14:00:51;15.07;67.58
71436;SHT31;59251;51.326;12.370;2024-02-21T14:03:18;15.04;67.06
71436;SHT31;59251;51.326;12.370;2024-02-21T14:05:46;15.41;66.99
71436;SHT31;59251;51.326;12.370;2024-02-21T14:08:13;15.45;66.10
71436;SHT31;59251;51.326;12.370;2024-02-21T14:10:41;15.38;66.17
71436;SHT31;59251;51.326;12.370;2024-02-21T14:13:07;15.56;66.30
71436;SHT31;59251;51.326;12.370;2024-02-21T14:15:35;15.31;67.16
71436;SHT31;59251;51.326;12.370;2024-02-21T14:18:06;15.52;66.13
71436;SHT31;59251;51.326;12.370;2024-02-21T14:20:35;15.39;66.80
71436;SHT31;59251;51.326;12.370;2024-02-21T14:23:01;15.28;67.02
71436;SHT31;59251;51.326;12.370;2024-02-21T14:25:30;15.04;67.24
71436;SHT31;59251;51.326;12.370;2024-02-21T14:27:56;15.14;66.90
71436;SHT31;59251;51.326;12.370;2024-02-21T14:30:23;15.15;66.95
71436;SHT31;59251;51.326;12.370;2024-02-21T14:32:52;14.64;67.94
71436;SHT31;59251;51.326;12.370;2024-02-21T14:35:19;14.28;69.00
71436;SHT31;59251;51.326;12.370;2024-02-21T14:37:46;14.00;70.21
71436;SHT31;59251;51.326;12.370;2024-02-21T14:40:14;14.14;69.57
71436;SHT31;59251;51.326;12.370;2024-02-21T14:42:41;13.88;69.47
71436;SHT31;59251;51.326;12.370;2024-02-21T14:45:08;13.70;70.46
71436;SHT31;59251;51.326;12.370;2024-02-21T14:47:35;13.42;70.36
71436;SHT31;59251;51.326;12.370;2024-02-21T14:50:04;13.46;70.57
71436;SHT31;59251;51.326;12.370;2024-02-21T14:52:32;13.68;68.73
71436;SHT31;59251;51.326;12.370;2024-02-21T14:55:01;13.56;68.14
71436;SHT31;59251;51.326;12.370;2024-02-21T14:57:28;13.30;68.67
71436;SHT31;59251;51.326;12.370;2024-02-21T14:59:55;13.24;67.84
71436;SHT31;59251;51.326;12.370;2024-02-21T15:02:21;13.06;68.07
71436;SHT31;59251;51.326;12.370;2024-02-21T15:04:48;13.05;67.50
71436;SHT31;59251;51.326;12.370;2024-02-21T15:07:19;13.02;67.71
71436;SHT31;59251;51.326;12.370;2024-02-21T15:09:49;12.99;67.54
71436;SHT31;59251;51.326;12.370;2024-02-21T15:12:17;12.96;67.28
71436;SHT31;59251;51.326;12.370;2024-02-21T15:14:43;12.96;67.32
71436;SHT31;59251;51.326;12.370;2024-02-21T15:17:10;12.92;67.81
71436;SHT31;59251;51.326;12.370;2024-02-21T15:19:37;12.93;67.86
71436;SHT31;59251;51.326;12.370;2024-02-21T15:22:09;12.61;68.60
71436;SHT31;59251;51.326;12.370;2024-02-21T15:24:38;12.68;68.71
71436;SHT31;59251;51.326;12.370;2024-02-21T15:27:05;12.54;69.16